Time;durP1;ratioP1;P1;durP2;ratioP2;P2;SDS_P1;SDS_P2;PMS_P1;PMS_P2;Temp;Humidity;BMP_temperature;BMP_pressure;BME280_temperature;BME280_humidity;BME280_pressure;Samples;Min_cycle;Max_cycle;Signal;HPM_P1;HPM_P2
2021/03/07 00:01:47;;;;;;;14.47;13.03;;;-1.70;99.90;;;;;;4884823;29;20559;-71
2021/03/07 00:04:13;;;;;;;14.97;13.53;;;-1.50;99.90;;;;;;4885433;29;20455;-71
2021/03/07 00:06:39;;;;;;;15.13;13.70;;;-1.50;99.90;;;;;;4886530;29;20945;-71
2021/03/07 00:09:06;;;;;;;15.87;14.47;;;-1.50;99.90;;;;;;4882175;29;20455;-70
2021/03/07 00:11:32;;;;;;;15.77;14.33;;;-1.60;99.90;;;;;;4885409;29;20463;-72
2021/03/07 00:13:59;;;;;;;14.97;13.73;;;-1.70;99.90;;;;;;4886383;29;20448;-72
2021/03/07 00:16:25;;;;;;;14.87;13.70;;;-1.80;99.90;;;;;;4884243;29;20463;-73
2021/03/07 00:18:51;;;;;;;14.53;13.30;;;-1.80;99.90;;;;;;4885622;29;20454;-72
2021/03/07 00:21:17;;;;;;;16.20;13.67;;;-1.70;99.90;;;;;;4885771;29;20448;-72
2021/03/07 00:23:43;;;;;;;14.60;13.37;;;-1.60;99.90;;;;;;4884338;29;20457;-72
2021/03/07 00:26:10;;;;;;;15.23;13.83;;;-1.50;99.90;;;;;;4885806;29;20515;-72
2021/03/07 00:28:37;;;;;;;14.53;13.20;;;-1.50;99.90;;;;;;4883332;29;20899;-70
2021/03/07 00:31:03;;;;;;;16.13;14.67;;;-1.50;99.90;;;;;;4885954;29;20451;-71
2021/03/07 00:33:29;;;;;;;21.53;13.00;;;-1.60;99.90;;;;;;4884901;29;20458;-70
2021/03/07 00:35:56;;;;;;;14.57;13.30;;;-1.70;99.90;;;;;;4884825;29;20475;-71
2021/03/07 00:38:22;;;;;;;14.30;13.10;;;-1.70;99.90;;;;;;4886109;29;20980;-72
2021/03/07 00:40:48;;;;;;;16.63;15.07;;;-1.50;99.90;;;;;;4884393;29;20537;-72
2021/03/07 00:43:15;;;;;;;15.17;13.97;;;-1.50;99.90;;;;;;4884893;29;20483;-72
2021/03/07 00:45:41;;;;;;;13.80;12.60;;;-1.60;99.90;;;;;;4886507;29;20463;-72
2021/03/07 00:48:08;;;;;;;14.63;13.37;;;-1.60;99.90;;;;;;4884428;29;20453;-71
2021/03/07 00:50:35;;;;;;;14.47;13.00;;;-1.70;99.90;;;;;;4884504;29;20460;-72
2021/03/07 00:53:01;;;;;;;14.60;13.40;;;-1.70;99.90;;;;;;4885907;29;20447;-72
2021/03/07 00:55:27;;;;;;;14.77;13.30;;;-1.60;99.90;;;;;;4884498;29;20463;-71
2021/03/07 00:57:54;;;;;;;16.33;14.83;;;-1.60;99.90;;;;;;4884872;29;20456;-71
2021/03/07 01:00:23;;;;;;;14.30;13.00;;;-1.60;99.90;;;;;;4884334;29;20665;-71
2021/03/07 01:02:49;;;;;;;15.10;13.90;;;-1.60;99.90;;;;;;4881949;29;20491;-71
2021/03/07 01:05:16;;;;;;;16.77;15.10;;;-1.60;99.90;;;;;;4882938;29;20452;-71
2021/03/07 01:07:43;;;;;;;16.30;14.70;;;-1.70;99.90;;;;;;4886102;29;20512;-71
2021/03/07 01:10:13;;;;;;;16.37;14.87;;;-1.70;99.90;;;;;;4884422;29;20905;-72
2021/03/07 01:12:40;;;;;;;15.73;14.13;;;-1.80;99.90;;;;;;4886807;29;20461;-72
2021/03/07 01:15:08;;;;;;;15.23;13.83;;;-1.80;99.90;;;;;;4881116;29;20669;-72
2021/03/07 01:17:35;;;;;;;17.37;15.70;;;-1.80;99.90;;;;;;4885002;29;20447;-72
2021/03/07 01:20:04;;;;;;;15.10;13.80;;;-1.80;99.90;;;;;;4886068;29;21210;-71
2021/03/07 01:22:30;;;;;;;15.47;14.20;;;-1.90;99.90;;;;;;4882426;29;20498;-71
2021/03/07 01:24:56;;;;;;;15.47;14.20;;;-1.90;99.90;;;;;;4884279;29;20507;-71
2021/03/07 01:27:22;;;;;;;17.53;15.00;;;-2.00;99.90;;;;;;4885628;29;20445;-71
2021/03/07 01:29:48;;;;;;;14.90;13.80;;;-1.90;99.90;;;;;;4883962;29;20865;-71
2021/03/07 01:32:14;;;;;;;15.40;13.97;;;-1.80;99.90;;;;;;4884601;29;20449;-71
2021/03/07 01:34:41;;;;;;;16.37;14.80;;;-1.90;99.90;;;;;;4888170;29;20460;-71
2021/03/07 01:37:08;;;;;;;14.67;13.33;;;-1.80;99.90;;;;;;4885325;29;20471;-71
2021/03/07 01:39:34;;;;;;;15.03;13.63;;;-1.80;99.90;;;;;;4888523;29;20793;-71
2021/03/07 01:42:09;;;;;;;15.17;13.67;;;-1.90;99.90;;;;;;4889058;29;20525;-72
2021/03/07 01:44:35;;;;;;;15.83;14.30;;;-2.00;99.90;;;;;;4886989;29;21045;-71
2021/03/07 01:47:01;;;;;;;16.70;15.13;;;-2.10;99.90;;;;;;4887293;29;20448;-71
2021/03/07 01:49:27;;;;;;;17.23;15.60;;;-2.20;99.90;;;;;;4889120;29;20448;-71
2021/03/07 01:51:55;;;;;;;18.20;15.37;;;-2.30;99.90;;;;;;4888161;29;20853;-72
2021/03/07 01:54:21;;;;;;;16.13;14.73;;;-2.40;99.90;;;;;;4887129;29;20447;-72
2021/03/07 01:56:49;;;;;;;16.83;14.33;;;-2.30;99.90;;;;;;4884539;29;20459;-72
2021/03/07 01:59:20;;;;;;;18.10;15.07;;;-2.30;99.90;;;;;;4887778;29;20451;-72
2021/03/07 02:01:47;;;;;;;16.93;15.40;;;-2.30;99.90;;;;;;4889060;29;20595;-71
2021/03/07 02:04:13;;;;;;;15.57;14.17;;;-2.30;99.90;;;;;;4888024;29;20462;-72
2021/03/07 02:06:39;;;;;;;17.70;16.10;;;-2.30;99.90;;;;;;4886881;29;20479;-72
2021/03/07 02:09:07;;;;;;;15.95;14.63;;;-2.40;99.90;;;;;;4888679;29;20455;-71
2021/03/07 02:11:34;;;;;;;15.57;14.38;;;-2.30;99.90;;;;;;4887602;29;20693;-71
2021/03/07 02:14:02;;;;;;;17.33;15.57;;;-2.30;99.90;;;;;;4889407;29;20206;-72
2021/03/07 02:16:29;;;;;;;18.27;16.40;;;-2.30;99.90;;;;;;4884730;29;20456;-71
2021/03/07 02:18:55;;;;;;;16.50;14.90;;;-2.40;99.90;;;;;;4887676;29;20454;-71
2021/03/07 02:21:23;;;;;;;15.60;14.30;;;-2.60;99.90;;;;;;4888564;29;20453;-71
2021/03/07 02:24:03;;;;;;;16.30;14.80;;;-2.60;99.90;;;;;;4888210;29;20451;-71
2021/03/07 02:26:30;;;;;;;17.10;15.43;;;-2.60;99.90;;;;;;4884739;29;20459;-71
2021/03/07 02:28:57;;;;;;;17.40;15.67;;;-2.50;99.90;;;;;;4887322;29;20496;-71
2021/03/07 02:31:25;;;;;;;17.20;15.60;;;-2.50;99.90;;;;;;4888690;29;20459;-71
2021/03/07 02:33:58;;;;;;;17.13;15.60;;;-2.60;99.90;;;;;;4886872;29;20487;-71
2021/03/07 02:36:29;;;;;;;16.08;14.63;;;-2.60;99.90;;;;;;4886088;29;20477;-71
2021/03/07 02:38:58;;;;;;;16.37;14.87;;;-2.50;99.90;;;;;;4888788;29;20199;-70
2021/03/07 02:41:28;;;;;;;16.83;15.00;;;-2.40;99.90;;;;;;4891346;29;20475;-70
2021/03/07 02:43:57;;;;;;;17.20;15.40;;;-2.30;99.90;;;;;;4887506;29;20207;-71
2021/03/07 02:46:25;;;;;;;16.77;15.18;;;-2.30;99.90;;;;;;4885306;29;20477;-71
2021/03/07 02:48:56;;;;;;;18.20;15.53;;;-2.30;99.90;;;;;;4887622;29;20480;-70
2021/03/07 02:51:24;;;;;;;16.87;15.23;;;-2.20;99.90;;;;;;4888038;29;20475;-71
2021/03/07 02:53:52;;;;;;;15.83;14.40;;;-2.20;99.90;;;;;;4882926;29;20510;-71
2021/03/07 02:56:22;;;;;;;15.03;13.83;;;-2.20;99.90;;;;;;4887248;29;20461;-70
2021/03/07 02:58:56;;;;;;;16.42;15.02;;;-2.10;99.90;;;;;;4882816;29;20451;-71
2021/03/07 03:01:23;;;;;;;16.60;15.20;;;-1.90;99.90;;;;;;4887671;29;20651;-71
2021/03/07 03:03:51;;;;;;;17.20;15.80;;;-1.70;99.90;;;;;;4886218;29;20483;-71
2021/03/07 03:06:18;;;;;;;16.02;14.63;;;-1.60;99.90;;;;;;4886352;29;20821;-71
2021/03/07 03:08:46;;;;;;;17.00;15.20;;;-1.60;99.90;;;;;;4887862;29;20206;-71
2021/03/07 03:11:13;;;;;;;19.90;16.13;;;-1.60;99.90;;;;;;4886443;29;20770;-71
2021/03/07 03:13:41;;;;;;;16.33;14.87;;;-1.60;99.90;;;;;;4886172;29;20449;-71
2021/03/07 03:16:09;;;;;;;19.03;17.50;;;-1.60;99.90;;;;;;4887253;29;20454;-72
2021/03/07 03:18:37;;;;;;;16.30;15.10;;;-1.60;99.90;;;;;;4886559;29;20538;-71
2021/03/07 03:21:07;;;;;;;16.10;14.77;;;-1.60;99.90;;;;;;4885637;29;20864;-72
2021/03/07 03:23:34;;;;;;;18.73;16.80;;;-1.70;99.90;;;;;;4886861;29;20554;-72
2021/03/07 03:26:00;;;;;;;17.33;15.90;;;-1.70;99.90;;;;;;4886843;29;20207;-72
2021/03/07 03:28:27;;;;;;;16.00;14.60;;;-1.70;99.90;;;;;;4885441;29;20456;-72
2021/03/07 03:30:54;;;;;;;16.13;14.93;;;-1.70;99.90;;;;;;4886453;29;20957;-72
2021/03/07 03:33:22;;;;;;;15.90;14.57;;;-1.70;99.90;;;;;;4886930;29;20760;-72
2021/03/07 03:35:49;;;;;;;16.50;15.00;;;-1.70;99.90;;;;;;4885361;29;20498;-72
2021/03/07 03:38:15;;;;;;;16.52;15.00;;;-1.70;99.90;;;;;;4886375;29;20456;-71
2021/03/07 03:40:42;;;;;;;17.73;16.03;;;-1.70;99.90;;;;;;4886776;29;20231;-71
2021/03/07 03:43:10;;;;;;;15.13;14.00;;;-1.70;99.90;;;;;;4885313;29;20494;-71
2021/03/07 03:45:38;;;;;;;20.57;15.40;;;-1.70;99.90;;;;;;4885977;29;20213;-71
2021/03/07 03:48:07;;;;;;;16.83;15.33;;;-1.80;99.90;;;;;;4887066;29;20942;-71
2021/03/07 03:50:40;;;;;;;17.40;15.60;;;-1.80;99.90;;;;;;4885948;29;20466;-71
2021/03/07 03:53:11;;;;;;;16.40;14.90;;;-1.70;99.90;;;;;;4885107;29;20444;-71
2021/03/07 03:55:41;;;;;;;17.37;15.63;;;-1.70;99.90;;;;;;4884605;29;21026;-71
2021/03/07 03:58:10;;;;;;;16.40;14.77;;;-1.70;99.90;;;;;;4884619;29;20456;-71
2021/03/07 04:00:39;;;;;;;17.73;14.37;;;-1.70;99.90;;;;;;4885850;29;20456;-70
2021/03/07 04:03:07;;;;;;;17.10;15.60;;;-1.70;99.90;;;;;;4886716;29;20670;-71
2021/03/07 04:05:35;;;;;;;16.63;15.13;;;-1.60;99.90;;;;;;4885366;29;20455;-71
2021/03/07 04:08:02;;;;;;;15.33;14.00;;;-1.60;99.90;;;;;;4884782;29;20438;-71
2021/03/07 04:10:30;;;;;;;16.50;14.43;;;-1.60;99.90;;;;;;4885076;29;20464;-71
2021/03/07 04:12:59;;;;;;;15.37;13.87;;;-1.70;99.90;;;;;;4885827;29;20506;-72
2021/03/07 04:15:27;;;;;;;15.57;14.30;;;-1.60;99.90;;;;;;4886463;29;20966;-72
2021/03/07 04:17:54;;;;;;;16.17;14.87;;;-1.60;99.90;;;;;;4885193;29;20445;-71
2021/03/07 04:20:21;;;;;;;15.17;13.97;;;-1.60;99.90;;;;;;4885149;29;20665;-72
2021/03/07 04:22:49;;;;;;;16.80;15.47;;;-1.60;99.90;;;;;;4886859;29;20481;-72
2021/03/07 04:25:16;;;;;;;16.93;15.43;;;-1.60;99.90;;;;;;4895947;29;20459;-72
2021/03/07 04:27:43;;;;;;;17.30;15.70;;;-1.70;99.90;;;;;;4896109;29;20975;-72
2021/03/07 04:30:11;;;;;;;15.60;14.40;;;-1.70;99.90;;;;;;4896173;29;20453;-72
2021/03/07 04:32:38;;;;;;;17.57;16.17;;;-1.70;99.90;;;;;;4895703;29;20461;-72
2021/03/07 04:35:06;;;;;;;15.33;13.97;;;-1.70;99.90;;;;;;4896078;29;20452;-71
2021/03/07 04:37:32;;;;;;;16.40;15.10;;;-1.60;99.90;;;;;;4895774;29;20545;-72
2021/03/07 04:39:59;;;;;;;16.40;15.23;;;-1.60;99.90;;;;;;4895775;29;20521;-72
2021/03/07 04:42:25;;;;;;;15.77;14.47;;;-1.70;99.90;;;;;;4895963;29;21057;-72
2021/03/07 04:44:52;;;;;;;16.73;15.30;;;-1.70;99.90;;;;;;4895897;29;20465;-72
2021/03/07 04:47:18;;;;;;;16.60;15.00;;;-1.80;99.90;;;;;;4895874;29;20470;-72
2021/03/07 04:49:44;;;;;;;17.50;15.80;;;-1.80;99.90;;;;;;4895683;29;20460;-72
2021/03/07 04:52:10;;;;;;;16.30;14.70;;;-1.80;99.90;;;;;;4895662;29;21024;-72
2021/03/07 04:54:37;;;;;;;18.20;16.33;;;-1.80;99.90;;;;;;4887056;29;20461;-72
2021/03/07 04:57:05;;;;;;;17.00;15.50;;;-1.80;99.90;;;;;;4876942;29;20463;-72
2021/03/07 04:59:32;;;;;;;16.40;14.87;;;-1.80;99.90;;;;;;4877065;29;20463;-72
2021/03/07 05:01:58;;;;;;;16.87;15.40;;;-1.80;99.90;;;;;;4877118;29;20488;-72
2021/03/07 05:04:24;;;;;;;16.33;14.83;;;-1.80;99.90;;;;;;4877321;29;20843;-71
2021/03/07 05:06:51;;;;;;;16.57;15.13;;;-1.90;99.90;;;;;;4877022;29;20464;-72
2021/03/07 05:09:17;;;;;;;20.85;15.70;;;-1.90;99.90;;;;;;4878745;29;20460;-71
2021/03/07 05:11:44;;;;;;;16.23;14.67;;;-1.90;99.90;;;;;;4880961;29;20215;-71
2021/03/07 05:14:11;;;;;;;17.50;16.00;;;-1.90;99.90;;;;;;4880522;29;20874;-72
2021/03/07 05:16:37;;;;;;;15.57;14.30;;;-1.90;99.90;;;;;;4880786;29;20574;-71
2021/03/07 05:19:04;;;;;;;16.30;14.70;;;-2.00;99.90;;;;;;4880693;29;20457;-71
2021/03/07 05:21:31;;;;;;;17.30;15.80;;;-2.00;99.90;;;;;;4880793;29;20219;-71
2021/03/07 05:23:59;;;;;;;16.10;14.80;;;-1.90;99.90;;;;;;4880468;29;20231;-71
2021/03/07 05:26:27;;;;;;;17.43;16.10;;;-1.80;99.90;;;;;;4880812;29;20454;-71
2021/03/07 05:28:53;;;;;;;16.20;14.90;;;-1.90;99.90;;;;;;4880483;29;20464;-71
2021/03/07 05:31:20;;;;;;;15.43;14.07;;;-1.90;99.90;;;;;;4882578;29;20451;-71
2021/03/07 05:33:46;;;;;;;15.63;14.23;;;-1.90;99.90;;;;;;4885995;29;20261;-72
2021/03/07 05:36:12;;;;;;;15.20;13.80;;;-1.80;99.90;;;;;;4882003;29;20488;-72
2021/03/07 05:38:39;;;;;;;16.40;14.90;;;-1.80;99.90;;;;;;4880393;29;20526;-73
2021/03/07 05:41:05;;;;;;;16.70;15.20;;;-1.80;99.90;;;;;;4880206;29;21186;-73
2021/03/07 05:43:32;;;;;;;14.93;13.80;;;-1.90;99.90;;;;;;4880195;29;20559;-73
2021/03/07 05:45:58;;;;;;;16.23;14.80;;;-1.90;99.90;;;;;;4880238;29;20473;-72
2021/03/07 05:48:28;;;;;;;16.23;14.77;;;-1.90;99.90;;;;;;4880097;29;20454;-72
2021/03/07 05:50:55;;;;;;;17.27;15.60;;;-1.90;99.90;;;;;;4880340;29;20501;-71
2021/03/07 05:53:21;;;;;;;16.23;15.00;;;-2.00;99.90;;;;;;4880255;29;20459;-72
2021/03/07 05:55:48;;;;;;;17.30;15.87;;;-2.00;99.90;;;;;;4879669;29;20503;-73
2021/03/07 05:58:16;;;;;;;17.97;16.33;;;-1.80;99.90;;;;;;4880108;29;20978;-72
2021/03/07 06:00:43;;;;;;;17.70;16.23;;;-1.90;99.90;;;;;;4880174;29;20469;-71
2021/03/07 06:03:09;;;;;;;18.00;16.40;;;-1.80;99.90;;;;;;4879874;29;20906;-72
2021/03/07 06:05:36;;;;;;;15.80;14.50;;;-1.80;99.90;;;;;;4879828;29;20484;-71
2021/03/07 06:08:03;;;;;;;17.13;15.63;;;-1.80;99.90;;;;;;4879797;29;20467;-70
2021/03/07 06:10:30;;;;;;;16.30;15.00;;;-1.80;99.90;;;;;;4880192;29;20456;-72
2021/03/07 06:13:00;;;;;;;16.80;15.50;;;-1.70;99.90;;;;;;4885949;29;20485;-72
2021/03/07 06:15:27;;;;;;;15.17;14.00;;;-1.70;99.90;;;;;;4898526;29;21090;-73
2021/03/07 06:17:53;;;;;;;16.07;14.70;;;-1.70;99.90;;;;;;4898627;29;20484;-72
2021/03/07 06:20:20;;;;;;;19.30;17.30;;;-1.70;99.90;;;;;;4898233;29;20461;-72
2021/03/07 06:22:55;;;;;;;17.40;15.90;;;-1.70;99.90;;;;;;4898071;29;20497;-72
2021/03/07 06:25:22;;;;;;;17.50;16.20;;;-1.70;99.90;;;;;;4898009;29;20457;-70
2021/03/07 06:27:50;;;;;;;16.37;15.00;;;-1.70;99.90;;;;;;4898076;29;20519;-72
2021/03/07 06:30:18;;;;;;;16.77;15.27;;;-1.70;99.90;;;;;;4898234;29;20469;-71
2021/03/07 06:32:50;;;;;;;15.93;14.63;;;-1.60;99.90;;;;;;4895527;29;20459;-72
2021/03/07 06:35:21;;;;;;;16.93;15.43;;;-1.40;99.90;;;;;;4886374;29;20951;-72
2021/03/07 06:37:56;;;;;;;18.70;16.67;;;-1.20;99.90;;;;;;4887898;29;20554;-72
2021/03/07 06:40:31;;;;;;;15.43;14.13;;;-0.80;99.90;;;;;;4886114;29;20590;-73
2021/03/07 06:42:59;;;;;;;14.77;13.57;;;-0.50;99.90;;;;;;4885193;29;20471;-74
2021/03/07 06:45:35;;;;;;;15.40;14.20;;;-0.20;99.90;;;;;;4886883;29;20522;-73
2021/03/07 06:48:02;;;;;;;15.60;14.70;;;0.10;99.90;;;;;;4884269;29;20472;-74
2021/03/07 06:50:28;;;;;;;16.47;15.17;;;0.40;99.90;;;;;;4887868;29;20456;-73
2021/03/07 06:52:56;;;;;;;14.47;13.37;;;0.60;99.90;;;;;;4884172;29;20442;-73
2021/03/07 06:55:25;;;;;;;15.83;14.40;;;0.90;99.90;;;;;;4886008;29;20515;-73
2021/03/07 06:57:51;;;;;;;15.73;14.53;;;1.20;99.90;;;;;;4885699;29;20458;-73
2021/03/07 07:00:36;;;;;;;16.00;14.70;;;1.40;99.90;;;;;;4886795;29;20454;-73
2021/03/07 07:03:08;;;;;;;16.37;15.10;;;1.50;99.90;;;;;;4885613;29;20515;-73
2021/03/07 07:05:36;;;;;;;16.00;14.77;;;1.60;99.90;;;;;;4883121;29;20545;-73
2021/03/07 07:08:03;;;;;;;16.50;15.10;;;1.70;99.90;;;;;;4886266;29;20450;-73
2021/03/07 07:10:30;;;;;;;17.03;15.63;;;1.80;99.90;;;;;;4887004;29;20513;-75
2021/03/07 07:13:03;;;;;;;15.90;14.80;;;1.90;99.90;;;;;;4885634;29;20509;-74
2021/03/07 07:15:30;;;;;;;16.30;15.10;;;2.30;99.90;;;;;;4888055;29;20471;-75
2021/03/07 07:17:57;;;;;;;17.90;16.43;;;2.60;99.90;;;;;;4885773;29;20473;-74
2021/03/07 07:20:23;;;;;;;16.00;14.60;;;2.70;99.80;;;;;;4886027;29;20465;-74
2021/03/07 07:22:49;;;;;;;17.20;15.80;;;3.00;99.60;;;;;;4886971;29;20926;-74
2021/03/07 07:25:17;;;;;;;16.27;14.77;;;3.10;98.70;;;;;;4885499;29;20452;-74
2021/03/07 07:27:43;;;;;;;16.67;15.43;;;3.20;98.20;;;;;;4886328;29;20461;-74
2021/03/07 07:30:11;;;;;;;15.43;14.17;;;3.40;98.30;;;;;;4887006;29;20907;-74
2021/03/07 07:32:41;;;;;;;15.60;14.47;;;3.60;97.60;;;;;;4885223;29;20511;-74
2021/03/07 07:35:11;;;;;;;15.13;14.03;;;3.80;97.00;;;;;;4885556;29;20461;-74
2021/03/07 07:37:45;;;;;;;14.67;13.57;;;3.90;96.10;;;;;;4883005;29;20476;-73
2021/03/07 07:40:13;;;;;;;15.80;14.60;;;4.40;96.00;;;;;;4885058;29;20477;-72
2021/03/07 07:42:40;;;;;;;15.50;14.30;;;4.70;94.70;;;;;;4886468;29;20545;-75
2021/03/07 07:45:19;;;;;;;14.53;13.37;;;5.00;94.00;;;;;;4886767;29;20454;-74
2021/03/07 07:47:48;;;;;;;14.60;13.57;;;5.20;92.90;;;;;;4885589;29;20493;-73
2021/03/07 07:50:31;;;;;;;14.47;13.33;;;5.40;92.00;;;;;;4885262;29;20456;-75
2021/03/07 07:52:58;;;;;;;14.73;13.70;;;5.40;91.50;;;;;;4883318;29;20694;-74
2021/03/07 07:55:43;;;;;;;14.60;13.60;;;5.20;92.00;;;;;;4885080;29;20455;-72
2021/03/07 07:58:10;;;;;;;14.67;13.63;;;5.30;92.20;;;;;;4886148;29;20456;-72
2021/03/07 08:00:47;;;;;;;15.63;14.73;;;5.80;91.50;;;;;;4882745;29;20452;-73
2021/03/07 08:03:34;;;;;;;14.77;13.83;;;6.00;90.30;;;;;;4884474;29;21021;-71
2021/03/07 08:06:01;;;;;;;14.90;13.90;;;6.40;90.00;;;;;;4883800;29;20822;-74
2021/03/07 08:08:32;;;;;;;15.70;14.60;;;6.30;88.80;;;;;;4885096;29;20455;-71
2021/03/07 08:11:00;;;;;;;15.50;14.50;;;6.40;89.50;;;;;;4883208;29;20486;-75
2021/03/07 08:13:48;;;;;;;15.37;14.37;;;6.90;88.10;;;;;;4885262;29;20526;-77
2021/03/07 08:16:42;;;;;;;15.50;14.50;;;7.10;86.90;;;;;;4875711;29;20834;-75
2021/03/07 08:19:11;;;;;;;16.00;14.80;;;7.50;84.60;;;;;;4877574;29;20463;-74
2021/03/07 08:21:57;;;;;;;14.20;13.20;;;7.80;83.60;;;;;;4877380;29;20456;-75
2021/03/07 08:24:24;;;;;;;14.07;13.07;;;7.80;81.10;;;;;;4877370;29;20551;-73
2021/03/07 08:26:52;;;;;;;14.57;13.53;;;8.00;81.10;;;;;;4880553;29;20460;-74
2021/03/07 08:29:53;;;;;;;15.87;14.77;;;8.10;78.80;;;;;;4881512;29;20452;-74
2021/03/07 08:32:33;;;;;;;14.90;13.90;;;8.40;78.60;;;;;;4856668;29;20447;-74
2021/03/07 08:35:00;;;;;;;16.20;15.10;;;8.90;76.20;;;;;;4856538;29;20453;-74
2021/03/07 08:37:28;;;;;;;16.23;14.97;;;8.90;75.80;;;;;;4867915;29;20534;-74
2021/03/07 08:40:29;;;;;;;15.47;14.37;;;9.10;74.50;;;;;;4877038;29;21080;-74
2021/03/07 08:42:56;;;;;;;15.90;14.90;;;9.30;73.90;;;;;;4876506;29;20495;-74
2021/03/07 08:45:25;;;;;;;16.33;15.43;;;9.10;73.20;;;;;;4877072;29;20472;-74
2021/03/07 08:47:52;;;;;;;14.37;13.57;;;9.90;72.60;;;;;;4877173;29;21026;-74
2021/03/07 08:50:20;;;;;;;16.23;15.00;;;10.50;67.70;;;;;;4877132;29;20462;-74
2021/03/07 08:52:46;;;;;;;16.70;15.67;;;11.00;66.80;;;;;;4876982;29;20515;-74
2021/03/07 08:55:13;;;;;;;16.60;15.60;;;11.50;63.20;;;;;;4877136;29;20456;-74
2021/03/07 08:57:44;;;;;;;15.97;15.00;;;11.40;63.50;;;;;;4877112;29;20460;-74
2021/03/07 09:00:12;;;;;;;17.33;16.23;;;12.00;61.50;;;;;;4877276;29;20907;-74
2021/03/07 09:02:39;;;;;;;17.20;15.90;;;12.30;59.90;;;;;;4876736;29;20499;-75
2021/03/07 09:05:08;;;;;;;16.47;15.57;;;12.30;59.70;;;;;;4874923;29;20491;-75
2021/03/07 09:07:35;;;;;;;16.27;15.17;;;12.30;58.10;;;;;;4877118;29;20452;-74
2021/03/07 09:10:01;;;;;;;17.70;16.47;;;12.00;58.70;;;;;;4877327;29;20455;-72
2021/03/07 09:12:27;;;;;;;16.33;15.33;;;11.90;59.00;;;;;;4877201;29;20459;-75
2021/03/07 09:14:53;;;;;;;16.70;15.70;;;12.20;58.30;;;;;;4876979;29;20474;-75
2021/03/07 09:17:21;;;;;;;17.07;16.07;;;12.60;57.40;;;;;;4876954;29;20508;-74
2021/03/07 09:19:48;;;;;;;17.53;16.43;;;12.80;57.50;;;;;;4876894;29;20504;-74
2021/03/07 09:22:18;;;;;;;15.50;14.50;;;13.60;56.00;;;;;;4877185;29;20457;-74
2021/03/07 09:24:53;;;;;;;16.07;15.17;;;14.20;54.40;;;;;;4875586;29;20461;-74
2021/03/07 09:27:20;;;;;;;17.70;16.70;;;14.80;53.20;;;;;;4876511;29;20908;-74
2021/03/07 09:29:54;;;;;;;17.10;16.20;;;15.30;50.90;;;;;;4876593;29;20456;-72
2021/03/07 09:32:24;;;;;;;17.20;16.10;;;16.00;50.00;;;;;;4876513;29;20452;-74
2021/03/07 09:34:52;;;;;;;18.20;16.80;;;15.70;49.20;;;;;;4876475;29;20452;-72
2021/03/07 09:37:18;;;;;;;17.30;16.20;;;15.30;50.00;;;;;;4876322;29;20484;-72
2021/03/07 09:39:46;;;;;;;17.50;16.40;;;15.70;49.50;;;;;;4876542;29;20460;-74
2021/03/07 09:42:12;;;;;;;18.33;17.23;;;15.60;49.30;;;;;;4876596;29;20877;-74
2021/03/07 09:44:40;;;;;;;17.40;16.40;;;16.60;48.80;;;;;;4876388;29;20459;-72
2021/03/07 09:47:06;;;;;;;18.10;17.10;;;17.40;47.70;;;;;;4876035;29;20476;-72
2021/03/07 09:49:32;;;;;;;17.17;15.97;;;17.70;45.80;;;;;;4876263;29;20464;-74
2021/03/07 09:52:00;;;;;;;16.53;15.43;;;17.10;46.80;;;;;;4876280;29;20463;-75
2021/03/07 09:54:26;;;;;;;18.73;17.50;;;17.20;46.20;;;;;;4876968;29;20879;-74
2021/03/07 09:56:54;;;;;;;19.47;18.30;;;16.80;47.10;;;;;;4879939;29;20464;-75
2021/03/07 09:59:24;;;;;;;19.13;17.93;;;16.70;47.00;;;;;;4878315;29;20471;-74
2021/03/07 10:01:53;;;;;;;19.00;17.80;;;16.90;46.50;;;;;;4879430;29;20555;-73
2021/03/07 10:04:31;;;;;;;18.40;17.30;;;16.00;46.60;;;;;;4879274;29;20866;-73
2021/03/07 10:06:57;;;;;;;17.67;16.57;;;14.90;47.90;;;;;;4879009;29;20466;-73
2021/03/07 10:09:25;;;;;;;19.20;17.90;;;14.20;49.60;;;;;;4879153;29;20487;-73
2021/03/07 10:11:56;;;;;;;17.97;16.77;;;13.60;50.70;;;;;;4879408;29;20468;-73
2021/03/07 10:14:28;;;;;;;19.13;17.77;;;13.40;51.70;;;;;;4879136;29;20456;-73
2021/03/07 10:16:55;;;;;;;17.43;16.33;;;12.90;52.40;;;;;;4878917;29;20459;-73
2021/03/07 10:19:21;;;;;;;19.70;18.30;;;12.80;53.50;;;;;;4879151;29;20470;-73
2021/03/07 10:21:55;;;;;;;18.80;17.53;;;12.30;53.40;;;;;;4879149;29;20467;-73
2021/03/07 10:24:21;;;;;;;19.30;17.77;;;12.60;54.80;;;;;;4878995;29;20858;-74
2021/03/07 10:26:50;;;;;;;17.30;15.80;;;13.30;53.80;;;;;;4878951;29;20468;-74
2021/03/07 10:29:35;;;;;;;16.97;15.80;;;14.00;53.00;;;;;;4878630;29;20952;-75
2021/03/07 10:32:08;;;;;;;19.27;17.87;;;14.50;51.70;;;;;;4878769;29;20456;-74
2021/03/07 10:34:37;;;;;;;18.47;17.27;;;14.70;51.40;;;;;;4878729;29;20456;-74
2021/03/07 10:37:05;;;;;;;17.97;16.80;;;14.80;51.50;;;;;;4878529;29;20468;-72
2021/03/07 10:39:31;;;;;;;18.97;17.67;;;14.90;50.90;;;;;;4878603;29;20451;-73
2021/03/07 10:42:09;;;;;;;18.20;16.90;;;15.10;50.60;;;;;;4878613;29;20476;-73
2021/03/07 10:44:36;;;;;;;18.23;17.13;;;15.20;50.50;;;;;;4878727;29;20539;-72
2021/03/07 10:47:19;;;;;;;18.47;17.23;;;15.90;50.20;;;;;;4878435;29;20464;-72
2021/03/07 10:49:47;;;;;;;19.57;18.13;;;16.00;49.60;;;;;;4878578;29;20467;-71
2021/03/07 10:52:13;;;;;;;20.17;18.87;;;17.00;48.30;;;;;;4878331;29;20818;-72
2021/03/07 10:54:39;;;;;;;20.03;18.83;;;17.80;47.10;;;;;;4878374;29;20471;-72
2021/03/07 10:57:08;;;;;;;20.57;19.27;;;19.30;45.40;;;;;;4878197;29;20498;-73
2021/03/07 10:59:35;;;;;;;22.07;20.53;;;20.40;43.90;;;;;;4878230;29;20924;-73
2021/03/07 11:02:01;;;;;;;21.73;20.20;;;20.40;41.80;;;;;;4878109;29;20460;-73
2021/03/07 11:04:27;;;;;;;21.33;20.03;;;19.90;41.50;;;;;;4878286;29;21015;-72
2021/03/07 11:06:54;;;;;;;20.77;19.13;;;19.10;42.70;;;;;;4877099;29;20461;-73
2021/03/07 11:09:20;;;;;;;20.10;18.80;;;17.40;44.00;;;;;;4878095;29;20468;-72
2021/03/07 11:11:46;;;;;;;19.33;18.07;;;16.60;45.60;;;;;;4876220;29;20491;-73
2021/03/07 11:14:13;;;;;;;18.87;17.77;;;15.80;45.90;;;;;;4878161;29;20452;-72
2021/03/07 11:16:39;;;;;;;20.53;19.20;;;16.20;47.00;;;;;;4878806;29;21031;-72
2021/03/07 11:19:05;;;;;;;21.50;20.00;;;16.10;46.70;;;;;;4878358;29;20464;-71
2021/03/07 11:21:32;;;;;;;21.17;19.67;;;15.60;47.00;;;;;;4878164;29;20463;-72
2021/03/07 11:23:58;;;;;;;20.30;18.90;;;14.60;48.70;;;;;;4882439;29;21015;-72
2021/03/07 11:26:25;;;;;;;19.83;18.43;;;14.60;49.50;;;;;;4884537;29;20456;-72
2021/03/07 11:28:51;;;;;;;20.83;19.30;;;15.60;48.80;;;;;;4879021;29;20471;-73
2021/03/07 11:31:18;;;;;;;20.07;18.63;;;16.80;47.20;;;;;;4878183;29;20453;-72
2021/03/07 11:33:44;;;;;;;19.57;18.37;;;17.60;45.80;;;;;;4878390;29;20456;-72
2021/03/07 11:36:10;;;;;;;20.93;19.37;;;17.50;45.20;;;;;;4878002;29;20468;-71
2021/03/07 11:38:36;;;;;;;20.23;18.93;;;17.80;44.80;;;;;;4878024;29;20473;-71
2021/03/07 11:41:03;;;;;;;19.53;18.23;;;18.30;44.10;;;;;;4877681;29;20499;-71
2021/03/07 11:43:29;;;;;;;20.43;19.03;;;19.20;43.00;;;;;;4877958;29;20491;-72
2021/03/07 11:45:55;;;;;;;18.90;17.60;;;18.70;42.00;;;;;;4878114;29;20936;-72
2021/03/07 11:48:22;;;;;;;21.90;20.40;;;18.20;43.60;;;;;;4877732;29;20456;-71
2021/03/07 11:50:48;;;;;;;21.70;20.17;;;18.70;43.00;;;;;;4875904;29;20456;-71
2021/03/07 11:53:15;;;;;;;19.57;18.27;;;18.00;43.40;;;;;;4877804;29;20460;-70
2021/03/07 11:55:41;;;;;;;20.90;19.60;;;17.70;44.30;;;;;;4877820;29;20456;-71
2021/03/07 11:58:07;;;;;;;21.40;19.90;;;16.70;45.40;;;;;;4877717;29;20978;-71
2021/03/07 12:00:33;;;;;;;21.23;19.83;;;17.00;46.00;;;;;;4877700;29;20466;-70
2021/03/07 12:03:00;;;;;;;20.60;19.40;;;17.80;45.20;;;;;;4877666;29;20488;-70
2021/03/07 12:05:27;;;;;;;21.30;19.50;;;18.00;44.20;;;;;;4877711;29;20839;-71
2021/03/07 12:07:53;;;;;;;23.17;21.57;;;18.40;44.50;;;;;;4877577;29;20460;-72
2021/03/07 12:10:19;;;;;;;21.27;19.87;;;18.60;43.80;;;;;;4877435;29;20876;-71
2021/03/07 12:12:46;;;;;;;21.07;19.67;;;18.70;42.20;;;;;;4877278;29;20456;-72
2021/03/07 12:15:13;;;;;;;20.30;19.00;;;18.60;43.90;;;;;;4877876;29;20460;-72
2021/03/07 12:17:40;;;;;;;21.97;20.57;;;19.60;42.30;;;;;;4877173;29;20516;-72
2021/03/07 12:20:07;;;;;;;20.63;19.37;;;19.60;41.90;;;;;;4877438;29;20459;-72
2021/03/07 12:22:34;;;;;;;20.93;19.37;;;19.80;40.60;;;;;;4877077;29;20460;-73
2021/03/07 12:25:01;;;;;;;22.20;20.57;;;19.80;40.20;;;;;;4877398;29;20463;-72
2021/03/07 12:27:27;;;;;;;21.87;20.20;;;19.70;40.30;;;;;;4877421;29;20952;-72
2021/03/07 12:29:53;;;;;;;21.77;20.37;;;19.10;39.80;;;;;;4877090;29;20799;-71
2021/03/07 12:32:19;;;;;;;20.43;19.03;;;19.30;41.00;;;;;;4877054;29;20983;-71
2021/03/07 12:34:46;;;;;;;21.10;19.60;;;20.00;39.70;;;;;;4877083;29;20508;-71